createdAt,value
2019-06-26T04:39:10.456Z,99.50
2019-06-26T04:41:15.979Z,99.90
2019-06-26T04:43:21.480Z,99.90
2019-06-26T04:45:27.027Z,99.90
2019-06-26T04:47:45.406Z,99.50
2019-06-26T04:49:50.936Z,99.40
2019-06-26T04:51:56.504Z,99.30
2019-06-26T04:54:03.132Z,99.20
2019-06-26T04:56:08.644Z,99.00
2019-06-26T04:58:14.196Z,99.30
2019-06-26T05:00:21.888Z,99.50
2019-06-26T05:02:27.589Z,98.90
2019-06-26T05:04:33.210Z,98.60
2019-06-26T05:06:38.746Z,98.60
2019-06-26T05:08:44.520Z,98.50
2019-06-26T05:10:50.184Z,98.60
2019-06-26T05:12:55.669Z,98.80
2019-06-26T05:15:01.221Z,99.00
2019-06-26T05:17:06.827Z,98.60
2019-06-26T05:19:12.367Z,98.80
2019-06-26T05:21:17.882Z,98.50
2019-06-26T05:23:23.420Z,98.30
2019-06-26T05:25:28.933Z,98.40
2019-06-26T05:27:34.589Z,98.20
2019-06-26T05:29:40.122Z,98.10
2019-06-26T05:31:45.734Z,98.10
2019-06-26T05:33:51.276Z,98.40
2019-06-26T05:35:56.794Z,98.20
2019-06-26T05:38:02.414Z,98.40
2019-06-26T05:40:11.557Z,98.20
2019-06-26T05:42:17.136Z,97.90
2019-06-26T05:44:22.644Z,97.90
2019-06-26T05:46:31.545Z,98.20
2019-06-26T05:48:35.374Z,97.70
2019-06-26T05:50:40.983Z,97.50
2019-06-26T05:52:46.500Z,97.30
2019-06-26T05:54:52.074Z,97.30
2019-06-26T05:56:57.567Z,97.50
2019-06-26T05:59:03.131Z,96.90
2019-06-26T06:01:08.733Z,96.90
2019-06-26T06:03:14.292Z,96.80
2019-06-26T06:05:20.033Z,96.50
2019-06-26T06:07:25.605Z,97.40
2019-06-26T06:10:08.552Z,96.00
2019-06-26T06:12:14.091Z,96.30
2019-06-26T06:14:19.644Z,95.90
2019-06-26T06:16:25.153Z,96.50
2019-06-26T06:18:30.668Z,95.50
2019-06-26T06:20:38.862Z,95.20
2019-06-26T06:22:44.407Z,94.30
2019-06-26T06:24:49.960Z,94.20
2019-06-26T06:26:55.690Z,94.00
2019-06-26T06:29:01.239Z,93.90
2019-06-26T06:31:06.731Z,93.70
2019-06-26T06:33:12.409Z,93.10
2019-06-26T06:35:17.917Z,92.50
2019-06-26T06:37:23.462Z,92.20
2019-06-26T06:39:29.050Z,92.10
2019-06-26T06:41:34.581Z,92.30
2019-06-26T06:43:40.116Z,91.60
2019-06-26T06:45:45.652Z,91.70
2019-06-26T06:47:51.197Z,91.30
2019-06-26T06:49:56.740Z,90.90
2019-06-26T06:52:02.373Z,90.90
2019-06-26T06:54:08.967Z,90.80
2019-06-26T06:56:15.593Z,90.40
2019-06-26T06:58:21.157Z,90.40
2019-06-26T07:00:26.820Z,90.20
2019-06-26T07:02:32.352Z,90.00
2019-06-26T07:04:37.929Z,89.40
2019-06-26T07:06:43.445Z,88.60
2019-06-26T07:08:48.962Z,89.30
2019-06-26T07:10:54.566Z,88.40
2019-06-26T07:13:00.060Z,88.50
2019-06-26T07:15:08.006Z,89.70
2019-06-26T07:17:20.548Z,89.80
2019-06-26T07:19:20.707Z,88.90
2019-06-26T07:21:26.293Z,88.20
2019-06-26T07:23:31.835Z,83.70
2019-06-26T07:25:37.352Z,83.90
2019-06-26T07:27:42.874Z,83.60
2019-06-26T07:29:48.422Z,85.40
2019-06-26T07:31:53.960Z,83.10
2019-06-26T07:33:59.498Z,84.60
2019-06-26T07:36:05.098Z,81.90
2019-06-26T07:38:10.599Z,81.80
2019-06-26T07:40:17.084Z,78.80
2019-06-26T07:42:22.653Z,79.40
2019-06-26T07:44:29.436Z,79.50
2019-06-26T07:46:34.983Z,80.90
2019-06-26T07:48:40.501Z,78.70
2019-06-26T07:51:59.456Z,80.40
2019-06-26T07:54:05.264Z,81.40
2019-06-26T07:56:10.808Z,83.10
2019-06-26T07:58:16.345Z,82.10
2019-06-26T08:00:21.984Z,82.50
2019-06-26T08:02:27.990Z,81.40
2019-06-26T08:04:33.880Z,81.00
2019-06-26T08:06:39.436Z,83.20
2019-06-26T08:08:44.967Z,79.70
2019-06-26T08:10:50.509Z,80.20
2019-06-26T08:12:56.087Z,79.00
2019-06-26T08:15:01.611Z,76.40
2019-06-26T08:17:07.390Z,76.80
2019-06-26T08:19:12.904Z,77.10
2019-06-26T08:21:18.433Z,77.70
2019-06-26T08:23:23.944Z,78.30
2019-06-26T08:25:29.512Z,77.40
2019-06-26T08:27:35.121Z,79.30
2019-06-26T08:29:40.665Z,77.70
2019-06-26T08:31:46.216Z,75.30
2019-06-26T08:33:51.752Z,76.10
2019-06-26T08:35:57.302Z,75.30
2019-06-26T08:38:11.103Z,75.40
2019-06-26T08:40:10.847Z,76.90
2019-06-26T08:42:16.385Z,73.80
2019-06-26T08:44:21.923Z,75.40
2019-06-26T08:46:27.454Z,74.20
2019-06-26T08:48:39.757Z,73.40
2019-06-26T08:50:40.114Z,71.30
2019-06-26T08:52:45.691Z,72.20
2019-06-26T08:54:51.244Z,69.80
2019-06-26T08:56:56.829Z,70.60
2019-06-26T08:59:02.292Z,72.00
2019-06-26T09:01:07.827Z,69.80
2019-06-26T09:03:13.412Z,70.70
2019-06-26T09:05:19.048Z,70.50
2019-06-26T09:07:24.489Z,70.50
2019-06-26T09:09:30.042Z,67.70
2019-06-26T09:11:36.125Z,68.70
2019-06-26T09:13:42.692Z,69.30
2019-06-26T09:15:49.904Z,67.90
2019-06-26T09:17:55.427Z,67.20
2019-06-26T09:20:00.944Z,68.10
2019-06-26T09:22:08.135Z,66.60
2019-06-26T09:24:13.670Z,67.40
2019-06-26T09:26:19.197Z,65.80
2019-06-26T09:28:24.698Z,65.90
2019-06-26T09:30:30.229Z,63.50
2019-06-26T09:32:35.732Z,63.60
2019-06-26T09:34:41.289Z,64.70
2019-06-26T09:36:46.827Z,66.20
2019-06-26T09:38:52.420Z,68.00
2019-06-26T09:40:57.956Z,64.40
2019-06-26T09:43:03.454Z,65.00
2019-06-26T09:45:09.464Z,63.00
2019-06-26T09:47:15.773Z,60.60
2019-06-26T09:49:21.346Z,59.00
2019-06-26T09:51:26.848Z,60.60
2019-06-26T09:53:46.048Z,58.90
2019-06-26T09:55:39.696Z,57.50
2019-06-26T09:57:45.275Z,58.60
2019-06-26T09:59:50.827Z,58.40
2019-06-26T10:01:56.297Z,58.80
2019-06-26T10:04:02.943Z,60.90
2019-06-26T10:06:08.511Z,60.70
2019-06-26T10:08:14.419Z,60.50
2019-06-26T10:10:20.284Z,61.40
2019-06-26T10:12:25.823Z,61.30
2019-06-26T10:14:46.653Z,60.50
2019-06-26T10:16:38.507Z,59.70
2019-06-26T10:18:44.008Z,58.80
2019-06-26T10:20:49.614Z,59.70
2019-06-26T10:22:55.147Z,60.00
2019-06-26T10:25:00.797Z,59.30
2019-06-26T10:27:06.438Z,59.60
2019-06-26T10:29:11.937Z,59.30
2019-06-26T10:31:18.496Z,60.00
2019-06-26T10:33:24.621Z,58.80
2019-06-26T10:35:30.242Z,59.20
2019-06-26T10:37:35.798Z,59.40
2019-06-26T10:39:41.348Z,61.50
2019-06-26T10:41:46.857Z,60.40
2019-06-26T10:43:52.519Z,58.20
2019-06-26T10:45:58.114Z,56.20
2019-06-26T10:48:03.771Z,58.00
2019-06-26T10:50:09.615Z,57.80
2019-06-26T10:52:15.245Z,58.40
2019-06-26T10:54:20.742Z,55.90
2019-06-26T10:56:28.634Z,54.60
2019-06-26T10:58:33.416Z,55.80
2019-06-26T11:00:39.661Z,56.20
2019-06-26T11:02:45.172Z,57.50
2019-06-26T11:04:50.774Z,55.40
2019-06-26T11:06:56.311Z,57.40
2019-06-26T11:09:01.892Z,54.90
2019-06-26T11:11:09.290Z,55.20
2019-06-26T11:13:14.809Z,55.50
2019-06-26T11:15:21.427Z,54.40
2019-06-26T11:17:26.945Z,55.90
2019-06-26T11:19:43.309Z,55.60
2019-06-26T11:21:39.661Z,56.30
2019-06-26T11:23:45.176Z,55.70
2019-06-26T11:25:50.684Z,53.80
2019-06-26T11:27:56.197Z,56.10
2019-06-26T11:30:01.822Z,55.00
2019-06-26T11:32:09.574Z,55.10
2019-06-26T11:34:14.900Z,57.00
2019-06-26T11:36:20.459Z,55.20
2019-06-26T11:38:26.010Z,55.50
2019-06-26T11:40:31.508Z,56.10
2019-06-26T11:42:37.105Z,53.70
2019-06-26T11:44:42.629Z,54.30
2019-06-26T11:46:48.466Z,54.10
2019-06-26T11:48:54.192Z,53.70
2019-06-26T11:51:00.125Z,54.40
2019-06-26T11:53:05.697Z,57.50
2019-06-26T11:55:13.364Z,57.40
2019-06-26T11:57:18.904Z,55.60
2019-06-26T11:59:24.429Z,54.10
2019-06-26T12:01:31.067Z,55.90
2019-06-26T12:03:36.634Z,54.20
2019-06-26T12:05:42.299Z,55.30
2019-06-26T12:07:47.807Z,54.00
2019-06-26T12:09:53.358Z,53.80
2019-06-26T12:11:58.948Z,54.50
2019-06-26T12:14:04.801Z,54.20
2019-06-26T12:16:10.302Z,54.40
2019-06-26T12:18:16.065Z,53.50
2019-06-26T12:20:21.764Z,53.90
2019-06-26T12:22:27.384Z,54.60
2019-06-26T12:24:32.947Z,55.10
2019-06-26T12:26:38.414Z,56.60
2019-06-26T12:28:43.924Z,59.00
2019-06-26T12:30:49.444Z,55.00
2019-06-26T12:33:02.733Z,55.10
2019-06-26T12:35:02.122Z,54.30
2019-06-26T12:37:07.891Z,53.80
2019-06-26T12:39:13.426Z,58.50
2019-06-26T12:41:19.040Z,56.00
2019-06-26T12:43:24.564Z,56.10
2019-06-26T12:45:30.098Z,55.50
2019-06-26T12:47:35.673Z,53.10
2019-06-26T12:49:41.192Z,53.30
2019-06-26T12:51:46.800Z,54.60
2019-06-26T12:53:52.393Z,55.50
2019-06-26T12:55:57.919Z,56.30
2019-06-26T12:58:13.228Z,53.70
2019-06-26T13:00:11.535Z,55.00
2019-06-26T13:02:18.016Z,55.50
2019-06-26T13:04:23.639Z,55.10
2019-06-26T13:06:29.140Z,55.50
2019-06-26T13:08:34.655Z,56.60
2019-06-26T13:10:49.657Z,56.50
2019-06-26T13:12:47.452Z,55.60
2019-06-26T13:14:52.955Z,55.70
2019-06-26T13:16:58.493Z,54.00
2019-06-26T13:19:04.107Z,56.30
2019-06-26T13:21:09.627Z,56.50
2019-06-26T13:23:15.172Z,56.90
2019-06-26T13:25:20.679Z,57.40
2019-06-26T13:27:26.210Z,57.80
2019-06-26T13:29:31.747Z,54.80
2019-06-26T13:31:38.315Z,54.50
2019-06-26T13:33:43.810Z,54.80
2019-06-26T13:35:49.347Z,54.50
2019-06-26T13:37:54.906Z,55.80
2019-06-26T13:40:00.428Z,55.40
2019-06-26T13:42:05.931Z,55.90
2019-06-26T13:44:11.530Z,56.20
2019-06-26T13:46:17.092Z,57.90
2019-06-26T13:48:22.627Z,56.80
2019-06-26T13:50:28.189Z,56.60
2019-06-26T13:52:34.735Z,58.30
2019-06-26T13:54:40.253Z,56.80
2019-06-26T13:56:45.767Z,57.40
2019-06-26T13:58:51.272Z,56.80
2019-06-26T14:00:56.796Z,55.00
2019-06-26T14:03:02.304Z,55.10
2019-06-26T14:05:08.689Z,55.40
2019-06-26T14:07:14.191Z,56.10
2019-06-26T14:09:19.696Z,56.70
2019-06-26T14:11:25.353Z,55.80
2019-06-26T14:13:30.905Z,58.00
2019-06-26T14:15:36.424Z,58.10
2019-06-26T14:17:41.978Z,57.60
2019-06-26T14:19:47.668Z,57.70
2019-06-26T14:21:53.251Z,58.70
2019-06-26T14:23:58.772Z,58.10
2019-06-26T14:26:04.364Z,57.20
2019-06-26T14:28:10.072Z,56.70
2019-06-26T14:30:16.085Z,56.20
2019-06-26T14:32:21.624Z,57.30
2019-06-26T14:34:27.982Z,57.70
2019-06-26T14:36:33.523Z,58.00
2019-06-26T14:38:39.083Z,57.50
2019-06-26T14:40:44.685Z,58.50
2019-06-26T14:42:50.220Z,58.40
2019-06-26T14:44:55.752Z,57.50
2019-06-26T14:47:01.332Z,57.40
2019-06-26T14:49:06.813Z,59.00
2019-06-26T14:51:12.375Z,59.30
2019-06-26T14:53:17.934Z,58.10
2019-06-26T14:55:23.424Z,59.20
2019-06-26T14:57:29.000Z,59.30
2019-06-26T14:59:34.636Z,59.50
2019-06-26T15:01:40.196Z,59.70
2019-06-26T15:03:45.720Z,58.70
2019-06-26T15:05:51.303Z,59.00
2019-06-26T15:07:56.836Z,60.50
2019-06-26T15:10:02.459Z,59.80
2019-06-26T15:12:08.075Z,60.50
2019-06-26T15:14:13.680Z,60.60
2019-06-26T15:16:19.247Z,61.80
2019-06-26T15:18:24.796Z,59.70
2019-06-26T15:20:30.307Z,60.50
2019-06-26T15:22:35.830Z,59.10
2019-06-26T15:24:41.342Z,60.00
2019-06-26T15:26:46.880Z,59.40
2019-06-26T15:28:52.413Z,60.40
2019-06-26T15:30:58.040Z,61.40
2019-06-26T15:33:03.590Z,62.00
2019-06-26T15:35:09.572Z,61.90
2019-06-26T15:37:15.075Z,61.30
2019-06-26T15:39:20.691Z,62.00
2019-06-26T15:41:26.245Z,62.70
2019-06-26T15:43:31.795Z,64.60
2019-06-26T15:45:37.328Z,62.00
2019-06-26T15:47:42.916Z,62.40
2019-06-26T15:49:48.411Z,63.20
2019-06-26T15:51:54.019Z,63.50
2019-06-26T15:54:00.142Z,63.00
2019-06-26T15:56:05.802Z,63.90
2019-06-26T15:58:11.321Z,62.70
2019-06-26T16:00:17.214Z,62.20
2019-06-26T16:02:22.767Z,63.80
2019-06-26T16:04:28.309Z,64.40
2019-06-26T16:06:33.809Z,62.30
2019-06-26T16:08:39.328Z,63.80
2019-06-26T16:10:44.870Z,63.30
2019-06-26T16:12:50.425Z,65.00
2019-06-26T16:14:55.939Z,64.10
2019-06-26T16:17:03.133Z,64.40
2019-06-26T16:19:13.000Z,64.40
2019-06-26T16:21:18.532Z,64.50
2019-06-26T16:23:24.071Z,66.50
2019-06-26T16:25:29.645Z,64.60
2019-06-26T16:27:35.326Z,64.20
2019-06-26T16:29:40.839Z,65.80
2019-06-26T16:31:46.380Z,65.40
2019-06-26T16:33:51.895Z,65.90
2019-06-26T16:35:57.438Z,66.20
2019-06-26T16:38:03.038Z,66.70
2019-06-26T16:40:08.894Z,67.80
2019-06-26T16:42:15.567Z,65.90
2019-06-26T16:44:22.026Z,65.90
2019-06-26T16:46:27.561Z,67.00
2019-06-26T16:48:33.119Z,66.50
2019-06-26T16:50:38.771Z,66.70
2019-06-26T16:52:49.277Z,66.70
2019-06-26T16:54:51.578Z,67.60
2019-06-26T16:56:57.149Z,67.00
2019-06-26T16:59:02.757Z,67.10
2019-06-26T17:01:08.354Z,66.70
2019-06-26T17:03:13.929Z,68.20
2019-06-26T17:05:19.490Z,68.30
2019-06-26T17:07:24.999Z,68.30
2019-06-26T17:09:30.694Z,68.10
2019-06-26T17:11:36.268Z,68.50
2019-06-26T17:13:41.786Z,68.60
2019-06-26T17:15:47.298Z,68.90
2019-06-26T17:17:52.846Z,69.30
2019-06-26T17:19:58.511Z,69.40
2019-06-26T17:22:04.365Z,69.50
2019-06-26T17:24:09.880Z,71.60
2019-06-26T17:26:16.541Z,70.00
2019-06-26T17:28:22.072Z,69.80
2019-06-26T17:30:27.649Z,69.80
2019-06-26T17:32:33.194Z,69.90
2019-06-26T17:34:38.694Z,70.50
2019-06-26T17:36:44.220Z,70.90
2019-06-26T17:38:49.740Z,71.00
2019-06-26T17:40:55.268Z,71.00
2019-06-26T17:43:11.750Z,70.80
2019-06-26T17:45:08.306Z,71.00
2019-06-26T17:47:13.915Z,70.70
2019-06-26T17:49:19.491Z,72.30
2019-06-26T17:51:24.988Z,72.40
2019-06-26T17:53:30.508Z,72.50
2019-06-26T17:55:36.064Z,72.50
2019-06-26T17:57:41.607Z,72.30
2019-06-26T17:59:47.107Z,72.50
2019-06-26T18:01:52.657Z,72.80
2019-06-26T18:03:58.165Z,73.30
2019-06-26T18:06:03.770Z,72.90
2019-06-26T18:08:09.332Z,73.60
2019-06-26T18:10:14.948Z,74.00
2019-06-26T18:12:20.498Z,74.00
2019-06-26T18:14:27.179Z,74.10
2019-06-26T18:16:33.802Z,74.20
2019-06-26T18:18:39.312Z,74.70
2019-06-26T18:20:44.867Z,73.90
2019-06-26T18:23:05.721Z,74.30
2019-06-26T18:24:57.595Z,74.30
2019-06-26T18:27:03.219Z,74.60
2019-06-26T18:29:08.735Z,74.70
2019-06-26T18:31:14.325Z,74.80
2019-06-26T18:33:19.820Z,75.00
2019-06-26T18:35:25.367Z,75.40
2019-06-26T18:37:30.856Z,74.90
2019-06-26T18:39:36.421Z,75.40
2019-06-26T18:41:41.951Z,75.60
2019-06-26T18:43:47.486Z,75.40
2019-06-26T18:45:53.089Z,75.60
2019-06-26T18:47:58.619Z,75.40
2019-06-26T18:50:08.629Z,75.60
2019-06-26T18:52:14.264Z,75.50
2019-06-26T18:54:19.780Z,75.50
2019-06-26T18:56:25.321Z,75.40
2019-06-26T18:58:30.996Z,75.60
2019-06-26T19:00:36.501Z,75.50
2019-06-26T19:02:42.130Z,75.70
2019-06-26T19:04:47.716Z,76.30
2019-06-26T19:06:53.221Z,76.00
2019-06-26T19:08:58.764Z,75.70
2019-06-26T19:11:04.330Z,75.70
2019-06-26T19:13:09.851Z,76.00
2019-06-26T19:15:15.528Z,75.80
2019-06-26T19:17:21.073Z,75.80
2019-06-26T19:19:26.681Z,75.30
2019-06-26T19:21:32.189Z,75.60
2019-06-26T19:23:37.726Z,75.90
2019-06-26T19:25:44.311Z,75.60
2019-06-26T19:27:50.020Z,75.70
2019-06-26T19:29:55.655Z,75.60
2019-06-26T19:32:01.189Z,76.00
2019-06-26T19:34:06.721Z,75.90
2019-06-26T19:36:12.259Z,76.10
2019-06-26T19:38:18.336Z,76.10
2019-06-26T19:40:24.421Z,76.30
2019-06-26T19:42:30.109Z,76.20
2019-06-26T19:44:35.640Z,76.40
2019-06-26T19:46:42.112Z,76.30
2019-06-26T19:48:47.656Z,76.70
2019-06-26T19:50:53.182Z,76.50
2019-06-26T19:52:58.682Z,76.50
2019-06-26T19:55:06.158Z,77.00
2019-06-26T19:57:11.687Z,77.00
2019-06-26T19:59:17.212Z,77.00
2019-06-26T20:01:22.813Z,77.60
2019-06-26T20:03:29.410Z,77.50
2019-06-26T20:05:34.976Z,77.40
2019-06-26T20:07:40.520Z,77.60
2019-06-26T20:09:46.040Z,77.50
2019-06-26T20:11:51.585Z,77.60
2019-06-26T20:13:57.118Z,77.90
2019-06-26T20:16:02.662Z,78.70
2019-06-26T20:18:08.210Z,78.60
2019-06-26T20:20:14.097Z,78.80
2019-06-26T20:22:19.711Z,79.00
2019-06-26T20:24:25.286Z,80.00
2019-06-26T20:26:30.925Z,79.60
2019-06-26T20:28:36.465Z,80.10
2019-06-26T20:30:41.986Z,80.60
2019-06-26T20:32:47.546Z,81.20
2019-06-26T20:34:53.356Z,81.40
2019-06-26T20:36:59.877Z,81.20
2019-06-26T20:39:05.759Z,81.10
2019-06-26T20:41:11.388Z,81.30
2019-06-26T20:43:16.944Z,81.70
2019-06-26T20:45:23.505Z,81.90
2019-06-26T20:47:29.069Z,82.50
2019-06-26T20:49:34.630Z,82.20
2019-06-26T20:51:40.189Z,82.70
2019-06-26T20:53:45.761Z,82.90
2019-06-26T20:55:51.311Z,83.00
2019-06-26T20:57:56.949Z,83.80
2019-06-26T21:00:02.495Z,84.00
2019-06-26T21:02:09.794Z,84.00
2019-06-26T21:04:15.373Z,83.90
2019-06-26T21:06:20.924Z,84.20
2019-06-26T21:08:29.592Z,84.60
2019-06-26T21:10:34.610Z,84.50
2019-06-26T21:12:40.145Z,84.70
2019-06-26T21:14:45.724Z,84.90
2019-06-26T21:16:51.243Z,85.20
2019-06-26T21:18:56.796Z,86.10
2019-06-26T21:21:02.346Z,86.00
2019-06-26T21:23:17.776Z,86.30
2019-06-26T21:25:19.173Z,86.80
2019-06-26T21:27:22.583Z,86.90
2019-06-26T21:29:28.101Z,86.80
2019-06-26T21:31:33.701Z,87.70
2019-06-26T21:33:39.269Z,88.20
2019-06-26T21:35:45.914Z,87.90
2019-06-26T21:37:52.597Z,88.10
2019-06-26T21:39:58.159Z,88.10
2019-06-26T21:42:03.841Z,88.60
2019-06-26T21:44:09.383Z,88.70
2019-06-26T21:46:14.961Z,89.00
2019-06-26T21:48:20.481Z,89.30
2019-06-26T21:50:28.809Z,89.60
2019-06-26T21:52:33.277Z,89.40
2019-06-26T21:54:38.906Z,89.60
2019-06-26T21:57:02.510Z,89.50
2019-06-26T21:59:25.956Z,90.00
2019-06-26T22:01:49.557Z,90.00
2019-06-26T22:04:13.323Z,90.00
2019-06-26T22:06:23.622Z,90.10
2019-06-26T22:08:48.836Z,90.00
2019-06-26T22:10:55.993Z,90.30
2019-06-26T22:13:01.696Z,90.40
2019-06-26T22:15:08.061Z,90.40
2019-06-26T22:17:15.175Z,90.50
2019-06-26T22:19:20.796Z,90.60
2019-06-26T22:21:26.401Z,90.80
2019-06-26T22:23:31.912Z,90.80
2019-06-26T22:25:50.286Z,90.80
2019-06-26T22:27:44.897Z,91.00
2019-06-26T22:29:50.486Z,90.80
2019-06-26T22:31:56.005Z,90.80
2019-06-26T22:34:01.532Z,90.80
2019-06-26T22:36:07.053Z,90.90
2019-06-26T22:38:12.614Z,91.00
2019-06-26T22:40:18.286Z,91.00
2019-06-26T22:42:23.785Z,91.10
2019-06-26T22:44:29.412Z,91.10
2019-06-26T22:46:34.948Z,91.10
2019-06-26T22:48:40.472Z,91.00
2019-06-26T22:50:46.025Z,91.10
2019-06-26T22:52:51.606Z,91.10
2019-06-26T22:54:57.121Z,91.10
2019-06-26T22:57:02.658Z,91.20
2019-06-26T22:59:08.208Z,91.10
2019-06-26T23:01:13.726Z,91.10
2019-06-26T23:03:19.374Z,91.20
2019-06-26T23:05:24.921Z,91.20
2019-06-26T23:07:30.469Z,91.30
2019-06-26T23:09:36.081Z,91.40
2019-06-26T23:11:41.673Z,91.30
2019-06-26T23:13:47.211Z,91.30
2019-06-26T23:15:52.741Z,91.30
2019-06-26T23:17:58.348Z,91.20
2019-06-26T23:20:08.809Z,91.30
2019-06-26T23:22:14.388Z,91.30
2019-06-26T23:24:19.909Z,91.20
2019-06-26T23:26:25.533Z,91.20
2019-06-26T23:28:31.104Z,91.00
2019-06-26T23:30:36.618Z,91.00
2019-06-26T23:32:42.182Z,91.10
2019-06-26T23:34:47.771Z,91.20
2019-06-26T23:36:53.288Z,91.20
2019-06-26T23:38:58.836Z,91.10
2019-06-26T23:41:04.521Z,91.50
2019-06-26T23:43:10.035Z,91.10
2019-06-26T23:45:15.628Z,91.20
2019-06-26T23:47:21.201Z,91.30
2019-06-26T23:49:26.715Z,91.20
2019-06-26T23:51:32.228Z,91.30
2019-06-26T23:53:37.818Z,91.40
2019-06-26T23:55:43.350Z,91.20
2019-06-26T23:57:59.168Z,91.20
2019-06-26T23:59:56.080Z,91.40
